Red Rock, Texas
Current Conditions -  °F | °C
As of 9:24 AM on Saturday 22 Nov 2014 (Local Time) from KAUS Reporting Station
Overcast Overcast  
Wind Chill: 65°   Ceiling: 6000
Heat Index: 65°   Visibility: 10mi
Dew Point: 63°   Wind: 18mph
Humidity: 93%   Direction: 120°ESE
Pressure: 30"   Gusts: NA
Location:  29.96°N, 97.45°W
Report Text: KAUS 221524Z 12016KT 10SM FEW009 BKN060 OVC090 18/17 A3000 RMK AO2 RAE10 TSE24 TS MOV NE P0002 T01830172 $
Loading
Personal Weather Stations






























Interactive Weather Map New forecast layout! Learn more

10-Day Weather Forecast

Advertisements
Track Severe Weather on mobile